sensor_id;sensor_type;location;lat;lon;timestamp;P1;durP1;ratioP1;P2;durP2;ratioP2
17253;SDS011;32542;52.832;13.816;2023-04-09T00:02:58;12.13;;;6.72;;
17253;SDS011;32542;52.832;13.816;2023-04-09T00:06:01;10.45;;;6.70;;
17253;SDS011;32542;52.832;13.816;2023-04-09T00:09:06;9.63;;;6.97;;
17253;SDS011;32542;52.832;13.816;2023-04-09T00:12:09;10.32;;;7.10;;
17253;SDS011;32542;52.832;13.816;2023-04-09T00:15:12;9.57;;;7.00;;
17253;SDS011;32542;52.832;13.816;2023-04-09T00:18:31;9.65;;;6.80;;
17253;SDS011;32542;52.832;13.816;2023-04-09T00:21:34;10.98;;;7.18;;
17253;SDS011;32542;52.832;13.816;2023-04-09T00:24:38;10.35;;;6.38;;
17253;SDS011;32542;52.832;13.816;2023-04-09T00:27:41;9.52;;;6.43;;
17253;SDS011;32542;52.832;13.816;2023-04-09T00:30:44;10.32;;;6.70;;
17253;SDS011;32542;52.832;13.816;2023-04-09T00:33:47;9.38;;;6.97;;
17253;SDS011;32542;52.832;13.816;2023-04-09T00:36:50;9.98;;;6.60;;
17253;SDS011;32542;52.832;13.816;2023-04-09T00:39:54;8.90;;;6.47;;
17253;SDS011;32542;52.832;13.816;2023-04-09T00:42:57;10.32;;;6.57;;
17253;SDS011;32542;52.832;13.816;2023-04-09T00:45:59;8.93;;;6.30;;
17253;SDS011;32542;52.832;13.816;2023-04-09T00:49:02;11.10;;;6.78;;
17253;SDS011;32542;52.832;13.816;2023-04-09T00:52:05;9.13;;;6.75;;
17253;SDS011;32542;52.832;13.816;2023-04-09T00:55:10;9.18;;;6.22;;
17253;SDS011;32542;52.832;13.816;2023-04-09T00:58:14;11.95;;;6.53;;
17253;SDS011;32542;52.832;13.816;2023-04-09T01:01:17;10.18;;;6.70;;
17253;SDS011;32542;52.832;13.816;2023-04-09T01:04:20;9.38;;;6.25;;
17253;SDS011;32542;52.832;13.816;2023-04-09T01:07:29;9.27;;;6.15;;
17253;SDS011;32542;52.832;13.816;2023-04-09T01:10:42;9.75;;;6.70;;
17253;SDS011;32542;52.832;13.816;2023-04-09T01:13:53;9.55;;;6.70;;
17253;SDS011;32542;52.832;13.816;2023-04-09T01:17:02;9.95;;;6.47;;
17253;SDS011;32542;52.832;13.816;2023-04-09T01:20:08;10.13;;;6.55;;
17253;SDS011;32542;52.832;13.816;2023-04-09T01:23:15;9.15;;;6.28;;
17253;SDS011;32542;52.832;13.816;2023-04-09T01:26:28;8.75;;;6.50;;
17253;SDS011;32542;52.832;13.816;2023-04-09T01:29:45;11.38;;;6.40;;
17253;SDS011;32542;52.832;13.816;2023-04-09T01:32:50;9.35;;;6.60;;
17253;SDS011;32542;52.832;13.816;2023-04-09T01:35:54;10.48;;;6.90;;
17253;SDS011;32542;52.832;13.816;2023-04-09T01:38:59;9.70;;;6.55;;
17253;SDS011;32542;52.832;13.816;2023-04-09T01:42:03;10.18;;;6.68;;
17253;SDS011;32542;52.832;13.816;2023-04-09T01:45:11;8.65;;;6.07;;
17253;SDS011;32542;52.832;13.816;2023-04-09T01:48:16;9.50;;;6.60;;
17253;SDS011;32542;52.832;13.816;2023-04-09T01:51:20;8.77;;;6.20;;
17253;SDS011;32542;52.832;13.816;2023-04-09T01:54:23;8.93;;;6.63;;
17253;SDS011;32542;52.832;13.816;2023-04-09T01:57:26;12.48;;;7.38;;
17253;SDS011;32542;52.832;13.816;2023-04-09T02:00:31;11.60;;;6.93;;
17253;SDS011;32542;52.832;13.816;2023-04-09T02:03:40;10.65;;;6.57;;
17253;SDS011;32542;52.832;13.816;2023-04-09T02:06:51;10.15;;;6.32;;
17253;SDS011;32542;52.832;13.816;2023-04-09T02:09:57;10.57;;;7.30;;
17253;SDS011;32542;52.832;13.816;2023-04-09T02:13:02;9.60;;;6.25;;
17253;SDS011;32542;52.832;13.816;2023-04-09T02:16:09;10.40;;;6.43;;
17253;SDS011;32542;52.832;13.816;2023-04-09T02:19:13;8.93;;;5.93;;
17253;SDS011;32542;52.832;13.816;2023-04-09T02:22:16;8.82;;;6.60;;
17253;SDS011;32542;52.832;13.816;2023-04-09T02:25:20;8.90;;;6.70;;
17253;SDS011;32542;52.832;13.816;2023-04-09T02:28:24;9.38;;;6.50;;
17253;SDS011;32542;52.832;13.816;2023-04-09T02:31:28;11.07;;;6.53;;
17253;SDS011;32542;52.832;13.816;2023-04-09T02:34:31;9.07;;;6.50;;
17253;SDS011;32542;52.832;13.816;2023-04-09T02:37:34;7.90;;;5.95;;
17253;SDS011;32542;52.832;13.816;2023-04-09T02:40:37;8.90;;;6.53;;
17253;SDS011;32542;52.832;13.816;2023-04-09T02:43:40;8.93;;;6.03;;
17253;SDS011;32542;52.832;13.816;2023-04-09T02:46:45;9.60;;;6.40;;
17253;SDS011;32542;52.832;13.816;2023-04-09T02:49:48;8.93;;;6.63;;
17253;SDS011;32542;52.832;13.816;2023-04-09T02:52:51;10.00;;;7.03;;
17253;SDS011;32542;52.832;13.816;2023-04-09T02:55:54;7.80;;;5.78;;
17253;SDS011;32542;52.832;13.816;2023-04-09T02:58:57;9.32;;;6.32;;
17253;SDS011;32542;52.832;13.816;2023-04-09T03:02:01;8.55;;;6.57;;
17253;SDS011;32542;52.832;13.816;2023-04-09T03:05:04;8.15;;;6.15;;
17253;SDS011;32542;52.832;13.816;2023-04-09T03:08:08;8.20;;;5.95;;
17253;SDS011;32542;52.832;13.816;2023-04-09T03:11:11;9.32;;;6.53;;
17253;SDS011;32542;52.832;13.816;2023-04-09T03:14:14;7.53;;;5.93;;
17253;SDS011;32542;52.832;13.816;2023-04-09T03:17:19;10.02;;;6.45;;
17253;SDS011;32542;52.832;13.816;2023-04-09T03:20:22;9.25;;;6.00;;
17253;SDS011;32542;52.832;13.816;2023-04-09T03:23:25;8.85;;;5.95;;
17253;SDS011;32542;52.832;13.816;2023-04-09T03:26:27;9.75;;;6.10;;
17253;SDS011;32542;52.832;13.816;2023-04-09T03:29:38;9.57;;;6.07;;
17253;SDS011;32542;52.832;13.816;2023-04-09T03:32:42;8.32;;;6.15;;
17253;SDS011;32542;52.832;13.816;2023-04-09T03:35:47;8.90;;;6.07;;
17253;SDS011;32542;52.832;13.816;2023-04-09T03:38:55;8.27;;;6.30;;
17253;SDS011;32542;52.832;13.816;2023-04-09T03:42:03;9.18;;;6.60;;
17253;SDS011;32542;52.832;13.816;2023-04-09T03:45:16;9.55;;;6.38;;
17253;SDS011;32542;52.832;13.816;2023-04-09T03:48:23;9.65;;;5.75;;
17253;SDS011;32542;52.832;13.816;2023-04-09T03:51:26;7.47;;;6.22;;
17253;SDS011;32542;52.832;13.816;2023-04-09T03:54:32;9.48;;;5.88;;
17253;SDS011;32542;52.832;13.816;2023-04-09T03:57:38;9.50;;;5.75;;
17253;SDS011;32542;52.832;13.816;2023-04-09T04:00:46;8.15;;;6.13;;
17253;SDS011;32542;52.832;13.816;2023-04-09T04:04:16;8.45;;;6.00;;
17253;SDS011;32542;52.832;13.816;2023-04-09T04:07:28;8.10;;;5.95;;
17253;SDS011;32542;52.832;13.816;2023-04-09T04:10:36;7.97;;;5.90;;
17253;SDS011;32542;52.832;13.816;2023-04-09T04:13:39;8.45;;;6.35;;
17253;SDS011;32542;52.832;13.816;2023-04-09T04:16:43;8.18;;;6.15;;
17253;SDS011;32542;52.832;13.816;2023-04-09T04:19:52;7.75;;;5.88;;
17253;SDS011;32542;52.832;13.816;2023-04-09T04:22:56;8.57;;;5.95;;
17253;SDS011;32542;52.832;13.816;2023-04-09T04:26:00;8.45;;;5.68;;
17253;SDS011;32542;52.832;13.816;2023-04-09T04:29:08;8.38;;;6.50;;
17253;SDS011;32542;52.832;13.816;2023-04-09T04:32:31;8.38;;;6.28;;
17253;SDS011;32542;52.832;13.816;2023-04-09T04:35:40;7.28;;;5.72;;
17253;SDS011;32542;52.832;13.816;2023-04-09T04:38:51;6.80;;;5.28;;
17253;SDS011;32542;52.832;13.816;2023-04-09T04:42:14;7.78;;;5.95;;
17253;SDS011;32542;52.832;13.816;2023-04-09T04:45:18;7.72;;;5.40;;
17253;SDS011;32542;52.832;13.816;2023-04-09T04:48:25;10.57;;;6.13;;
17253;SDS011;32542;52.832;13.816;2023-04-09T04:51:30;7.18;;;5.80;;
17253;SDS011;32542;52.832;13.816;2023-04-09T04:54:38;8.48;;;5.95;;
17253;SDS011;32542;52.832;13.816;2023-04-09T04:57:42;7.45;;;5.70;;
17253;SDS011;32542;52.832;13.816;2023-04-09T05:00:45;8.05;;;5.65;;
17253;SDS011;32542;52.832;13.816;2023-04-09T05:03:49;8.27;;;5.78;;
17253;SDS011;32542;52.832;13.816;2023-04-09T05:07:11;8.25;;;6.13;;
17253;SDS011;32542;52.832;13.816;2023-04-09T05:10:21;7.95;;;5.50;;
17253;SDS011;32542;52.832;13.816;2023-04-09T05:13:24;7.15;;;5.03;;
17253;SDS011;32542;52.832;13.816;2023-04-09T05:16:28;7.53;;;5.22;;
17253;SDS011;32542;52.832;13.816;2023-04-09T05:19:37;8.63;;;5.75;;
17253;SDS011;32542;52.832;13.816;2023-04-09T05:22:41;7.43;;;5.75;;
17253;SDS011;32542;52.832;13.816;2023-04-09T05:25:44;8.02;;;5.88;;
17253;SDS011;32542;52.832;13.816;2023-04-09T05:29:03;7.38;;;5.47;;
17253;SDS011;32542;52.832;13.816;2023-04-09T05:32:07;7.25;;;5.75;;
17253;SDS011;32542;52.832;13.816;2023-04-09T05:35:12;6.20;;;5.03;;
17253;SDS011;32542;52.832;13.816;2023-04-09T05:38:19;7.85;;;5.63;;
17253;SDS011;32542;52.832;13.816;2023-04-09T05:41:29;7.32;;;5.43;;
17253;SDS011;32542;52.832;13.816;2023-04-09T05:44:56;6.93;;;5.15;;
17253;SDS011;32542;52.832;13.816;2023-04-09T05:47:59;6.38;;;5.22;;
17253;SDS011;32542;52.832;13.816;2023-04-09T05:51:02;7.03;;;5.55;;
17253;SDS011;32542;52.832;13.816;2023-04-09T05:54:08;7.03;;;5.25;;
17253;SDS011;32542;52.832;13.816;2023-04-09T05:57:12;6.68;;;5.30;;
17253;SDS011;32542;52.832;13.816;2023-04-09T06:00:19;7.88;;;5.72;;
17253;SDS011;32542;52.832;13.816;2023-04-09T06:03:23;6.85;;;5.50;;
17253;SDS011;32542;52.832;13.816;2023-04-09T06:06:27;6.93;;;5.32;;
17253;SDS011;32542;52.832;13.816;2023-04-09T06:09:31;7.55;;;5.45;;
17253;SDS011;32542;52.832;13.816;2023-04-09T06:12:35;6.25;;;5.10;;
17253;SDS011;32542;52.832;13.816;2023-04-09T06:15:38;7.05;;;5.18;;
17253;SDS011;32542;52.832;13.816;2023-04-09T06:18:40;6.40;;;4.75;;
17253;SDS011;32542;52.832;13.816;2023-04-09T06:21:43;6.60;;;5.03;;
17253;SDS011;32542;52.832;13.816;2023-04-09T06:24:47;7.05;;;5.05;;
17253;SDS011;32542;52.832;13.816;2023-04-09T06:27:50;6.20;;;4.53;;
17253;SDS011;32542;52.832;13.816;2023-04-09T06:30:53;6.65;;;5.47;;
17253;SDS011;32542;52.832;13.816;2023-04-09T06:33:56;7.90;;;5.65;;
17253;SDS011;32542;52.832;13.816;2023-04-09T06:36:59;6.90;;;4.95;;
17253;SDS011;32542;52.832;13.816;2023-04-09T06:40:03;6.00;;;5.03;;
17253;SDS011;32542;52.832;13.816;2023-04-09T06:43:07;6.40;;;4.72;;
17253;SDS011;32542;52.832;13.816;2023-04-09T06:46:17;5.97;;;5.03;;
17253;SDS011;32542;52.832;13.816;2023-04-09T06:49:21;5.55;;;4.43;;
17253;SDS011;32542;52.832;13.816;2023-04-09T06:52:24;6.70;;;5.20;;
17253;SDS011;32542;52.832;13.816;2023-04-09T06:55:28;7.38;;;5.05;;
17253;SDS011;32542;52.832;13.816;2023-04-09T06:58:31;6.18;;;5.00;;
17253;SDS011;32542;52.832;13.816;2023-04-09T07:01:34;6.32;;;4.88;;
17253;SDS011;32542;52.832;13.816;2023-04-09T07:04:38;6.05;;;4.85;;
17253;SDS011;32542;52.832;13.816;2023-04-09T07:07:41;6.38;;;4.90;;
17253;SDS011;32542;52.832;13.816;2023-04-09T07:10:45;5.82;;;4.75;;
17253;SDS011;32542;52.832;13.816;2023-04-09T07:13:49;6.22;;;4.72;;
17253;SDS011;32542;52.832;13.816;2023-04-09T07:16:52;6.05;;;5.15;;
17253;SDS011;32542;52.832;13.816;2023-04-09T07:19:55;5.85;;;4.80;;
17253;SDS011;32542;52.832;13.816;2023-04-09T07:22:58;5.28;;;4.43;;
17253;SDS011;32542;52.832;13.816;2023-04-09T07:26:03;5.72;;;4.72;;
17253;SDS011;32542;52.832;13.816;2023-04-09T07:29:06;6.28;;;4.97;;
17253;SDS011;32542;52.832;13.816;2023-04-09T07:32:09;6.20;;;4.97;;
17253;SDS011;32542;52.832;13.816;2023-04-09T07:35:12;5.90;;;4.57;;
17253;SDS011;32542;52.832;13.816;2023-04-09T07:38:15;5.63;;;4.88;;
17253;SDS011;32542;52.832;13.816;2023-04-09T07:41:19;5.95;;;4.70;;
17253;SDS011;32542;52.832;13.816;2023-04-09T07:44:22;6.13;;;4.60;;
17253;SDS011;32542;52.832;13.816;2023-04-09T07:47:25;6.40;;;4.50;;
17253;SDS011;32542;52.832;13.816;2023-04-09T07:50:28;6.18;;;4.78;;
17253;SDS011;32542;52.832;13.816;2023-04-09T07:53:31;5.22;;;4.15;;
17253;SDS011;32542;52.832;13.816;2023-04-09T07:56:35;6.22;;;4.45;;
17253;SDS011;32542;52.832;13.816;2023-04-09T07:59:38;6.10;;;4.40;;
17253;SDS011;32542;52.832;13.816;2023-04-09T08:02:41;7.50;;;4.43;;
17253;SDS011;32542;52.832;13.816;2023-04-09T08:05:45;5.57;;;4.43;;
17253;SDS011;32542;52.832;13.816;2023-04-09T08:08:48;5.63;;;4.32;;
17253;SDS011;32542;52.832;13.816;2023-04-09T08:11:52;5.38;;;4.40;;
17253;SDS011;32542;52.832;13.816;2023-04-09T08:14:55;5.57;;;4.38;;
17253;SDS011;32542;52.832;13.816;2023-04-09T08:17:58;6.43;;;4.35;;
17253;SDS011;32542;52.832;13.816;2023-04-09T08:21:03;6.65;;;4.80;;
17253;SDS011;32542;52.832;13.816;2023-04-09T08:24:06;5.97;;;4.50;;
17253;SDS011;32542;52.832;13.816;2023-04-09T08:27:12;5.38;;;4.07;;
17253;SDS011;32542;52.832;13.816;2023-04-09T08:30:15;5.68;;;4.50;;
17253;SDS011;32542;52.832;13.816;2023-04-09T08:33:19;8.85;;;4.13;;
17253;SDS011;32542;52.832;13.816;2023-04-09T08:36:22;7.35;;;4.57;;
17253;SDS011;32542;52.832;13.816;2023-04-09T08:47:00;7.95;;;4.40;;
17253;SDS011;32542;52.832;13.816;2023-04-09T08:50:03;6.03;;;4.32;;
17253;SDS011;32542;52.832;13.816;2023-04-09T08:53:07;6.30;;;4.75;;
17253;SDS011;32542;52.832;13.816;2023-04-09T08:56:12;17.75;;;4.55;;
17253;SDS011;32542;52.832;13.816;2023-04-09T08:59:16;8.00;;;4.30;;
17253;SDS011;32542;52.832;13.816;2023-04-09T09:02:21;9.07;;;5.63;;
17253;SDS011;32542;52.832;13.816;2023-04-09T09:05:29;10.55;;;5.70;;
17253;SDS011;32542;52.832;13.816;2023-04-09T09:08:37;8.93;;;6.25;;
17253;SDS011;32542;52.832;13.816;2023-04-09T09:11:40;11.10;;;6.22;;
17253;SDS011;32542;52.832;13.816;2023-04-09T09:14:44;9.57;;;6.68;;
17253;SDS011;32542;52.832;13.816;2023-04-09T09:17:53;11.13;;;7.85;;
17253;SDS011;32542;52.832;13.816;2023-04-09T09:21:04;10.40;;;7.43;;
17253;SDS011;32542;52.832;13.816;2023-04-09T09:24:15;12.00;;;7.95;;
17253;SDS011;32542;52.832;13.816;2023-04-09T09:27:31;9.27;;;6.68;;
17253;SDS011;32542;52.832;13.816;2023-04-09T09:30:37;10.80;;;7.10;;
17253;SDS011;32542;52.832;13.816;2023-04-09T09:33:42;10.32;;;6.97;;
17253;SDS011;32542;52.832;13.816;2023-04-09T09:36:46;7.85;;;6.03;;
17253;SDS011;32542;52.832;13.816;2023-04-09T09:39:49;9.45;;;6.97;;
17253;SDS011;32542;52.832;13.816;2023-04-09T09:42:53;9.57;;;6.63;;
17253;SDS011;32542;52.832;13.816;2023-04-09T09:45:56;8.60;;;6.18;;
17253;SDS011;32542;52.832;13.816;2023-04-09T09:49:01;16.02;;;11.70;;
17253;SDS011;32542;52.832;13.816;2023-04-09T09:52:04;308.55;;;251.10;;
17253;SDS011;32542;52.832;13.816;2023-04-09T09:55:12;243.80;;;196.43;;
17253;SDS011;32542;52.832;13.816;2023-04-09T09:58:16;161.05;;;124.35;;
17253;SDS011;32542;52.832;13.816;2023-04-09T10:01:23;139.63;;;103.43;;
17253;SDS011;32542;52.832;13.816;2023-04-09T10:04:32;194.90;;;145.02;;
17253;SDS011;32542;52.832;13.816;2023-04-09T10:07:36;260.05;;;184.43;;
17253;SDS011;32542;52.832;13.816;2023-04-09T10:10:40;242.23;;;172.07;;
17253;SDS011;32542;52.832;13.816;2023-04-09T10:13:45;225.40;;;157.13;;
17253;SDS011;32542;52.832;13.816;2023-04-09T10:16:54;251.63;;;171.05;;
17253;SDS011;32542;52.832;13.816;2023-04-09T10:20:00;215.88;;;146.27;;
17253;SDS011;32542;52.832;13.816;2023-04-09T10:23:14;194.63;;;132.77;;
17253;SDS011;32542;52.832;13.816;2023-04-09T10:26:23;193.43;;;132.05;;
17253;SDS011;32542;52.832;13.816;2023-04-09T10:29:27;176.30;;;122.70;;
17253;SDS011;32542;52.832;13.816;2023-04-09T10:32:33;168.20;;;116.40;;
17253;SDS011;32542;52.832;13.816;2023-04-09T10:35:38;177.07;;;117.30;;
17253;SDS011;32542;52.832;13.816;2023-04-09T10:38:44;161.98;;;113.35;;
17253;SDS011;32542;52.832;13.816;2023-04-09T10:41:48;162.75;;;111.13;;
17253;SDS011;32542;52.832;13.816;2023-04-09T10:48:10;153.90;;;102.85;;
17253;SDS011;32542;52.832;13.816;2023-04-09T10:51:18;154.45;;;104.68;;
17253;SDS011;32542;52.832;13.816;2023-04-09T10:54:37;143.70;;;99.45;;
17253;SDS011;32542;52.832;13.816;2023-04-09T10:57:44;142.45;;;98.47;;
17253;SDS011;32542;52.832;13.816;2023-04-09T11:00:48;144.23;;;98.95;;
17253;SDS011;32542;52.832;13.816;2023-04-09T11:04:06;141.45;;;96.50;;
17253;SDS011;32542;52.832;13.816;2023-04-09T11:07:12;138.82;;;96.90;;
17253;SDS011;32542;52.832;13.816;2023-04-09T11:10:18;142.98;;;96.35;;
17253;SDS011;32542;52.832;13.816;2023-04-09T11:13:21;134.07;;;92.00;;
17253;SDS011;32542;52.832;13.816;2023-04-09T11:16:24;137.57;;;91.40;;
17253;SDS011;32542;52.832;13.816;2023-04-09T11:19:29;134.27;;;88.65;;
17253;SDS011;32542;52.832;13.816;2023-04-09T11:22:36;133.43;;;89.20;;
17253;SDS011;32542;52.832;13.816;2023-04-09T11:25:39;130.00;;;87.20;;
17253;SDS011;32542;52.832;13.816;2023-04-09T11:28:42;127.70;;;86.40;;
17253;SDS011;32542;52.832;13.816;2023-04-09T11:31:45;124.80;;;84.63;;
17253;SDS011;32542;52.832;13.816;2023-04-09T11:34:50;130.43;;;83.60;;
17253;SDS011;32542;52.832;13.816;2023-04-09T11:37:55;125.78;;;83.90;;
17253;SDS011;32542;52.832;13.816;2023-04-09T11:40:58;128.05;;;82.95;;
17253;SDS011;32542;52.832;13.816;2023-04-09T11:44:01;119.28;;;78.75;;
17253;SDS011;32542;52.832;13.816;2023-04-09T11:47:05;121.15;;;82.07;;
17253;SDS011;32542;52.832;13.816;2023-04-09T11:50:09;120.93;;;80.22;;
17253;SDS011;32542;52.832;13.816;2023-04-09T11:53:18;120.95;;;78.85;;
17253;SDS011;32542;52.832;13.816;2023-04-09T11:56:21;119.80;;;78.20;;
17253;SDS011;32542;52.832;13.816;2023-04-09T11:59:25;117.72;;;77.47;;
17253;SDS011;32542;52.832;13.816;2023-04-09T12:02:28;116.32;;;76.10;;
17253;SDS011;32542;52.832;13.816;2023-04-09T12:05:32;117.40;;;74.20;;
17253;SDS011;32542;52.832;13.816;2023-04-09T12:08:37;108.25;;;74.70;;
17253;SDS011;32542;52.832;13.816;2023-04-09T12:11:41;112.25;;;74.15;;
17253;SDS011;32542;52.832;13.816;2023-04-09T12:14:45;109.72;;;71.82;;
17253;SDS011;32542;52.832;13.816;2023-04-09T12:17:49;112.90;;;71.55;;
17253;SDS011;32542;52.832;13.816;2023-04-09T12:20:52;107.07;;;69.72;;
17253;SDS011;32542;52.832;13.816;2023-04-09T12:23:56;104.22;;;68.50;;
17253;SDS011;32542;52.832;13.816;2023-04-09T12:27:00;112.07;;;68.78;;
17253;SDS011;32542;52.832;13.816;2023-04-09T12:30:03;102.03;;;66.60;;
17253;SDS011;32542;52.832;13.816;2023-04-09T12:33:06;105.20;;;66.10;;
17253;SDS011;32542;52.832;13.816;2023-04-09T12:36:11;107.90;;;67.10;;
17253;SDS011;32542;52.832;13.816;2023-04-09T12:39:16;98.13;;;68.03;;
17253;SDS011;32542;52.832;13.816;2023-04-09T12:42:18;98.82;;;64.88;;
17253;SDS011;32542;52.832;13.816;2023-04-09T12:45:21;98.22;;;65.82;;
17253;SDS011;32542;52.832;13.816;2023-04-09T12:48:24;107.05;;;64.28;;
17253;SDS011;32542;52.832;13.816;2023-04-09T12:51:27;97.15;;;63.10;;
17253;SDS011;32542;52.832;13.816;2023-04-09T12:54:32;98.03;;;62.45;;
17253;SDS011;32542;52.832;13.816;2023-04-09T12:57:35;99.88;;;62.30;;
17253;SDS011;32542;52.832;13.816;2023-04-09T13:00:38;95.95;;;63.85;;
17253;SDS011;32542;52.832;13.816;2023-04-09T13:03:41;91.30;;;61.55;;
17253;SDS011;32542;52.832;13.816;2023-04-09T13:06:44;92.65;;;61.13;;
17253;SDS011;32542;52.832;13.816;2023-04-09T13:09:49;87.40;;;58.30;;
17253;SDS011;32542;52.832;13.816;2023-04-09T13:12:53;92.22;;;60.03;;
17253;SDS011;32542;52.832;13.816;2023-04-09T13:15:55;88.03;;;59.25;;
17253;SDS011;32542;52.832;13.816;2023-04-09T13:18:58;89.20;;;59.50;;
17253;SDS011;32542;52.832;13.816;2023-04-09T13:22:01;87.90;;;57.80;;
17253;SDS011;32542;52.832;13.816;2023-04-09T13:25:08;84.82;;;56.40;;
17253;SDS011;32542;52.832;13.816;2023-04-09T13:28:11;84.07;;;55.67;;
17253;SDS011;32542;52.832;13.816;2023-04-09T13:31:14;80.63;;;55.53;;
17253;SDS011;32542;52.832;13.816;2023-04-09T13:34:17;79.85;;;54.60;;
17253;SDS011;32542;52.832;13.816;2023-04-09T13:37:20;83.63;;;55.22;;
17253;SDS011;32542;52.832;13.816;2023-04-09T13:40:24;82.07;;;54.03;;
17253;SDS011;32542;52.832;13.816;2023-04-09T13:43:27;80.88;;;54.10;;
17253;SDS011;32542;52.832;13.816;2023-04-09T13:46:30;84.38;;;56.03;;
17253;SDS011;32542;52.832;13.816;2023-04-09T13:49:33;76.60;;;52.65;;
17253;SDS011;32542;52.832;13.816;2023-04-09T13:52:37;78.45;;;51.38;;
17253;SDS011;32542;52.832;13.816;2023-04-09T13:55:41;78.72;;;50.88;;
17253;SDS011;32542;52.832;13.816;2023-04-09T13:58:44;83.10;;;51.47;;
17253;SDS011;32542;52.832;13.816;2023-04-09T14:01:47;76.50;;;50.75;;
17253;SDS011;32542;52.832;13.816;2023-04-09T14:04:50;80.63;;;50.97;;
17253;SDS011;32542;52.832;13.816;2023-04-09T14:07:53;82.03;;;50.08;;
17253;SDS011;32542;52.832;13.816;2023-04-09T14:10:57;80.85;;;49.75;;
17253;SDS011;32542;52.832;13.816;2023-04-09T14:14:00;74.78;;;47.83;;
17253;SDS011;32542;52.832;13.816;2023-04-09T14:17:03;74.85;;;48.90;;
17253;SDS011;32542;52.832;13.816;2023-04-09T14:20:07;70.70;;;46.35;;
17253;SDS011;32542;52.832;13.816;2023-04-09T14:23:10;76.00;;;49.22;;
17253;SDS011;32542;52.832;13.816;2023-04-09T14:26:14;73.65;;;46.08;;
17253;SDS011;32542;52.832;13.816;2023-04-09T14:29:18;76.15;;;47.30;;
17253;SDS011;32542;52.832;13.816;2023-04-09T14:32:21;74.00;;;45.97;;
17253;SDS011;32542;52.832;13.816;2023-04-09T14:35:24;75.43;;;47.33;;
17253;SDS011;32542;52.832;13.816;2023-04-09T14:38:27;69.25;;;45.63;;
17253;SDS011;32542;52.832;13.816;2023-04-09T14:41:31;67.15;;;45.78;;
17253;SDS011;32542;52.832;13.816;2023-04-09T14:44:36;70.60;;;45.05;;
17253;SDS011;32542;52.832;13.816;2023-04-09T14:47:39;68.50;;;44.30;;
17253;SDS011;32542;52.832;13.816;2023-04-09T14:50:42;63.90;;;43.72;;
17253;SDS011;32542;52.832;13.816;2023-04-09T14:53:45;65.80;;;43.85;;
17253;SDS011;32542;52.832;13.816;2023-04-09T14:56:50;69.15;;;43.90;;
17253;SDS011;32542;52.832;13.816;2023-04-09T14:59:52;65.00;;;43.13;;
17253;SDS011;32542;52.832;13.816;2023-04-09T15:02:55;67.30;;;41.30;;
17253;SDS011;32542;52.832;13.816;2023-04-09T15:05:58;63.47;;;42.25;;
17253;SDS011;32542;52.832;13.816;2023-04-09T15:09:01;58.55;;;40.38;;
17253;SDS011;32542;52.832;13.816;2023-04-09T15:12:05;67.82;;;41.10;;
17253;SDS011;32542;52.832;13.816;2023-04-09T15:15:10;63.33;;;42.08;;
17253;SDS011;32542;52.832;13.816;2023-04-09T15:18:14;61.08;;;40.25;;
17253;SDS011;32542;52.832;13.816;2023-04-09T15:21:17;68.15;;;42.00;;
17253;SDS011;32542;52.832;13.816;2023-04-09T15:24:20;61.97;;;44.20;;
17253;SDS011;32542;52.832;13.816;2023-04-09T15:27:24;64.60;;;45.80;;
17253;SDS011;32542;52.832;13.816;2023-04-09T15:30:27;67.45;;;47.72;;
17253;SDS011;32542;52.832;13.816;2023-04-09T15:33:30;72.65;;;49.03;;
17253;SDS011;32542;52.832;13.816;2023-04-09T15:36:32;69.45;;;46.70;;
17253;SDS011;32542;52.832;13.816;2023-04-09T15:39:35;67.95;;;47.63;;
17253;SDS011;32542;52.832;13.816;2023-04-09T15:42:39;74.55;;;53.33;;
17253;SDS011;32542;52.832;13.816;2023-04-09T15:45:43;73.30;;;53.30;;
17253;SDS011;32542;52.832;13.816;2023-04-09T15:48:48;78.53;;;54.17;;
17253;SDS011;32542;52.832;13.816;2023-04-09T15:51:51;73.88;;;53.20;;
17253;SDS011;32542;52.832;13.816;2023-04-09T15:54:54;72.20;;;52.08;;
17253;SDS011;32542;52.832;13.816;2023-04-09T15:57:59;80.35;;;54.63;;
17253;SDS011;32542;52.832;13.816;2023-04-09T16:01:04;78.05;;;53.88;;
17253;SDS011;32542;52.832;13.816;2023-04-09T16:04:08;122.43;;;98.05;;
17253;SDS011;32542;52.832;13.816;2023-04-09T16:07:12;131.05;;;106.93;;
17253;SDS011;32542;52.832;13.816;2023-04-09T16:10:16;109.10;;;81.15;;
17253;SDS011;32542;52.832;13.816;2023-04-09T16:13:21;85.50;;;65.22;;
17253;SDS011;32542;52.832;13.816;2023-04-09T16:16:23;90.57;;;62.45;;
17253;SDS011;32542;52.832;13.816;2023-04-09T16:19:26;79.50;;;60.10;;
17253;SDS011;32542;52.832;13.816;2023-04-09T16:22:29;81.45;;;59.95;;
17253;SDS011;32542;52.832;13.816;2023-04-09T16:25:33;81.00;;;57.53;;
17253;SDS011;32542;52.832;13.816;2023-04-09T16:28:37;82.63;;;58.85;;
17253;SDS011;32542;52.832;13.816;2023-04-09T16:31:40;83.60;;;59.83;;
17253;SDS011;32542;52.832;13.816;2023-04-09T16:34:43;83.85;;;58.40;;
17253;SDS011;32542;52.832;13.816;2023-04-09T16:37:46;83.85;;;58.33;;
17253;SDS011;32542;52.832;13.816;2023-04-09T16:40:49;77.57;;;56.60;;
17253;SDS011;32542;52.832;13.816;2023-04-09T16:43:53;75.45;;;55.35;;
17253;SDS011;32542;52.832;13.816;2023-04-09T16:46:56;77.75;;;55.03;;
17253;SDS011;32542;52.832;13.816;2023-04-09T16:49:59;75.07;;;53.83;;
17253;SDS011;32542;52.832;13.816;2023-04-09T16:53:03;77.82;;;54.00;;
17253;SDS011;32542;52.832;13.816;2023-04-09T16:56:06;74.28;;;52.25;;
17253;SDS011;32542;52.832;13.816;2023-04-09T16:59:11;70.85;;;52.28;;
17253;SDS011;32542;52.832;13.816;2023-04-09T17:02:15;70.45;;;50.17;;
17253;SDS011;32542;52.832;13.816;2023-04-09T17:05:22;72.18;;;51.58;;
17253;SDS011;32542;52.832;13.816;2023-04-09T17:08:25;68.03;;;50.28;;
17253;SDS011;32542;52.832;13.816;2023-04-09T17:11:28;69.18;;;49.00;;
17253;SDS011;32542;52.832;13.816;2023-04-09T17:14:34;69.30;;;49.03;;
17253;SDS011;32542;52.832;13.816;2023-04-09T17:17:37;67.18;;;48.67;;
17253;SDS011;32542;52.832;13.816;2023-04-09T17:20:40;66.50;;;48.28;;
17253;SDS011;32542;52.832;13.816;2023-04-09T17:23:43;64.75;;;47.05;;
17253;SDS011;32542;52.832;13.816;2023-04-09T17:26:46;66.47;;;48.65;;
17253;SDS011;32542;52.832;13.816;2023-04-09T17:29:50;68.43;;;48.90;;
17253;SDS011;32542;52.832;13.816;2023-04-09T17:32:54;67.53;;;47.33;;
17253;SDS011;32542;52.832;13.816;2023-04-09T17:35:56;67.10;;;46.75;;
17253;SDS011;32542;52.832;13.816;2023-04-09T17:39:00;65.78;;;47.03;;
17253;SDS011;32542;52.832;13.816;2023-04-09T17:42:03;63.45;;;44.83;;
17253;SDS011;32542;52.832;13.816;2023-04-09T17:45:09;63.58;;;43.90;;
17253;SDS011;32542;52.832;13.816;2023-04-09T17:48:12;61.83;;;45.38;;
17253;SDS011;32542;52.832;13.816;2023-04-09T17:51:16;61.97;;;43.97;;
17253;SDS011;32542;52.832;13.816;2023-04-09T17:54:20;60.15;;;43.10;;
17253;SDS011;32542;52.832;13.816;2023-04-09T17:57:23;58.88;;;42.55;;
17253;SDS011;32542;52.832;13.816;2023-04-09T18:00:27;63.13;;;43.33;;
17253;SDS011;32542;52.832;13.816;2023-04-09T18:03:30;59.25;;;42.35;;
17253;SDS011;32542;52.832;13.816;2023-04-09T18:06:33;61.72;;;41.78;;
17253;SDS011;32542;52.832;13.816;2023-04-09T18:09:36;60.40;;;43.80;;